Time,TemperatureF,DewpointF,PressureIn,WindDirection,WindDirectionDegrees,WindSpeedMPH,WindSpeedGustMPH,Humidity,HourlyPrecipIn,Conditions,Clouds,dailyrainin,SolarRadiationWatts/m^2,SoftwareType,DateUTC
2013-06-09 00:02:00,70.0,23.0,-100.00,NNW,346,5.0,11.0,17,0.00,,,0.00,0.000000,,2013-06-09 06:02:00,
2013-06-09 00:11:00,70.0,23.0,-100.00,NNW,346,5.0,11.0,17,0.00,,,0.00,0.000000,,2013-06-09 06:11:00,
2013-06-09 00:22:00,70.0,23.0,-100.00,NNW,346,5.0,11.0,17,0.00,,,0.00,0.000000,,2013-06-09 06:22:00,
2013-06-09 00:52:00,71.0,23.0,-100.00,NNW,339,7.0,14.0,16,0.00,,,0.00,0.000000,,2013-06-09 06:52:00,
2013-06-09 01:02:00,71.0,23.0,-100.00,NNW,339,7.0,14.0,16,0.00,,,0.00,0.000000,,2013-06-09 07:02:00,
2013-06-09 01:52:00,69.0,24.0,-100.00,NW,321,8.0,15.0,18,-99.99,,,0.00,0.000000,,2013-06-09 07:52:00,
2013-06-09 02:02:00,69.0,24.0,-100.00,NW,321,8.0,15.0,18,-99.99,,,0.00,0.000000,,2013-06-09 08:02:00,
2013-06-09 02:30:00,67.0,25.0,-100.00,NNW,340,7.0,15.0,20,-99.99,,,0.00,0.000000,,2013-06-09 08:30:00,
2013-06-09 02:53:00,67.0,25.0,-100.00,NNW,340,7.0,15.0,20,-99.99,,,0.00,0.000000,,2013-06-09 08:53:00,
2013-06-09 03:02:00,67.0,25.0,-100.00,NNW,340,7.0,15.0,20,-99.99,,,0.00,0.000000,,2013-06-09 09:02:00,
2013-06-09 03:30:00,66.0,25.0,-100.00,NNW,341,8.0,15.0,21,0.00,,,0.00,0.000000,,2013-06-09 09:30:00,
2013-06-09 03:52:00,66.0,25.0,-100.00,NNW,341,8.0,15.0,21,0.00,,,0.00,0.000000,,2013-06-09 09:52:00,
2013-06-09 04:03:00,66.0,25.0,-100.00,NNW,341,8.0,15.0,21,0.00,,,0.00,0.000000,,2013-06-09 10:03:00,
2013-06-09 04:23:00,66.0,25.0,-100.00,NNW,341,8.0,15.0,21,0.00,,,0.00,0.000000,,2013-06-09 10:23:00,
2013-06-09 04:30:00,64.0,25.0,-100.00,North,349,7.0,14.0,23,0.00,,,0.00,0.000000,,2013-06-09 10:30:00,
2013-06-09 04:52:00,64.0,25.0,-100.00,North,349,7.0,14.0,23,0.00,,,0.00,0.000000,,2013-06-09 10:52:00,
2013-06-09 05:02:00,64.0,25.0,-100.00,North,349,7.0,14.0,23,0.00,,,0.00,0.000000,,2013-06-09 11:02:00,
2013-06-09 05:12:00,64.0,25.0,-100.00,North,349,7.0,14.0,23,0.00,,,0.00,0.000000,,2013-06-09 11:12:00,
2013-06-09 05:22:00,64.0,25.0,-100.00,North,349,7.0,14.0,23,0.00,,,0.00,0.000000,,2013-06-09 11:22:00,
2013-06-09 05:52:00,65.0,26.0,-100.00,North,350,9.0,15.0,23,0.00,,,0.00,0.000000,,2013-06-09 11:52:00,
2013-06-09 06:02:00,65.0,26.0,-100.00,North,350,9.0,15.0,23,0.00,,,0.00,0.000000,,2013-06-09 12:02:00,
2013-06-09 06:30:00,64.0,27.0,-100.00,North,358,7.0,13.0,25,-99.99,,,0.00,9.000000,,2013-06-09 12:30:00,
2013-06-09 06:52:00,64.0,27.0,-100.00,North,358,7.0,13.0,25,-99.99,,,0.00,9.000000,,2013-06-09 12:52:00,
2013-06-09 07:02:00,64.0,27.0,-100.00,North,358,7.0,13.0,25,-99.99,,,0.00,9.000000,,2013-06-09 13:02:00,
2013-06-09 07:52:00,71.0,30.0,-100.00,North,354,6.0,10.0,22,0.00,,,0.00,131.000000,,2013-06-09 13:52:00,
2013-06-09 08:02:00,71.0,30.0,-100.00,North,354,6.0,10.0,22,0.00,,,0.00,131.000000,,2013-06-09 14:02:00,
2013-06-09 08:52:00,76.0,31.0,-100.00,North,4,9.0,18.0,19,-99.99,,,0.00,443.000000,,2013-06-09 14:52:00,
2013-06-09 09:02:00,76.0,31.0,-100.00,North,4,9.0,18.0,19,-99.99,,,0.00,443.000000,,2013-06-09 15:02:00,
2013-06-09 09:30:00,79.0,29.0,-100.00,North,3,7.0,17.0,16,0.00,,,0.00,675.000000,,2013-06-09 15:30:00,
2013-06-09 09:53:00,79.0,29.0,-100.00,North,3,7.0,17.0,16,0.00,,,0.00,675.000000,,2013-06-09 15:53:00,
2013-06-09 10:03:00,79.0,29.0,-100.00,North,3,7.0,17.0,16,0.00,,,0.00,675.000000,,2013-06-09 16:03:00,
2013-06-09 10:13:00,79.0,29.0,-100.00,North,3,7.0,17.0,16,0.00,,,0.00,675.000000,,2013-06-09 16:13:00,
2013-06-09 10:23:00,79.0,29.0,-100.00,North,3,7.0,17.0,16,0.00,,,0.00,675.000000,,2013-06-09 16:23:00,
2013-06-09 10:30:00,83.0,29.0,-100.00,NNW,338,5.0,12.0,14,0.00,,,0.00,876.000000,,2013-06-09 16:30:00,
2013-06-09 10:53:00,83.0,29.0,-100.00,NNW,338,5.0,12.0,14,0.00,,,0.00,876.000000,,2013-06-09 16:53:00,
2013-06-09 11:02:00,83.0,29.0,-100.00,NNW,338,5.0,12.0,14,0.00,,,0.00,876.000000,,2013-06-09 17:02:00,
2013-06-09 11:12:00,83.0,29.0,-100.00,NNW,338,5.0,12.0,14,0.00,,,0.00,876.000000,,2013-06-09 17:12:00,
2013-06-09 11:22:00,83.0,29.0,-100.00,NNW,338,5.0,12.0,14,0.00,,,0.00,876.000000,,2013-06-09 17:22:00,
2013-06-09 11:30:00,85.0,29.0,-100.00,NW,313,6.0,14.0,13,0.00,,,0.00,1033.000000,,2013-06-09 17:30:00,
2013-06-09 11:52:00,85.0,29.0,-100.00,NW,313,6.0,14.0,13,0.00,,,0.00,1033.000000,,2013-06-09 17:52:00,
2013-06-09 12:02:00,85.0,29.0,-100.00,NW,313,6.0,14.0,13,0.00,,,0.00,1033.000000,,2013-06-09 18:02:00,
2013-06-09 12:12:00,85.0,29.0,-100.00,NW,313,6.0,14.0,13,0.00,,,0.00,1033.000000,,2013-06-09 18:12:00,
2013-06-09 12:21:00,85.0,29.0,-100.00,NW,313,6.0,14.0,13,0.00,,,0.00,1033.000000,,2013-06-09 18:21:00,
2013-06-09 12:30:00,87.0,28.0,-100.00,WNW,285,8.0,14.0,12,0.00,,,0.00,1128.000000,,2013-06-09 18:30:00,
2013-06-09 12:52:00,87.0,28.0,-100.00,WNW,285,8.0,14.0,12,0.00,,,0.00,1128.000000,,2013-06-09 18:52:00,
2013-06-09 13:02:00,87.0,28.0,-100.00,WNW,285,8.0,14.0,12,0.00,,,0.00,1128.000000,,2013-06-09 19:02:00,
2013-06-09 13:12:00,87.0,28.0,-100.00,WNW,285,8.0,14.0,12,0.00,,,0.00,1128.000000,,2013-06-09 19:12:00,
2013-06-09 13:22:00,87.0,28.0,-100.00,WNW,285,8.0,14.0,12,0.00,,,0.00,1128.000000,,2013-06-09 19:22:00,
2013-06-09 13:30:00,89.0,25.0,-100.00,WNW,300,7.0,15.0,10,0.00,,,0.00,1167.000000,,2013-06-09 19:30:00,
2013-06-09 13:52:00,89.0,25.0,-100.00,WNW,300,7.0,15.0,10,0.00,,,0.00,1167.000000,,2013-06-09 19:52:00,
2013-06-09 14:02:00,89.0,25.0,-100.00,WNW,300,7.0,15.0,10,0.00,,,0.00,1167.000000,,2013-06-09 20:02:00,
2013-06-09 14:12:00,89.0,25.0,-100.00,WNW,300,7.0,15.0,10,0.00,,,0.00,1167.000000,,2013-06-09 20:12:00,
2013-06-09 14:22:00,89.0,25.0,-100.00,WNW,300,7.0,15.0,10,0.00,,,0.00,1167.000000,,2013-06-09 20:22:00,
2013-06-09 14:30:00,89.0,23.0,-100.00,North,353,9.0,19.0,9,0.00,,,0.00,1153.000000,,2013-06-09 20:30:00,
2013-06-09 14:52:00,89.0,23.0,-100.00,North,353,9.0,19.0,9,0.00,,,0.00,1153.000000,,2013-06-09 20:52:00,
2013-06-09 15:02:00,89.0,23.0,-100.00,North,353,9.0,19.0,9,0.00,,,0.00,1153.000000,,2013-06-09 21:02:00,
2013-06-09 15:12:00,89.0,23.0,-100.00,North,353,9.0,19.0,9,0.00,,,0.00,1153.000000,,2013-06-09 21:12:00,
2013-06-09 15:22:00,89.0,23.0,-100.00,North,353,9.0,19.0,9,0.00,,,0.00,1153.000000,,2013-06-09 21:22:00,
2013-06-09 15:30:00,91.0,22.0,-100.00,NNW,336,8.0,19.0,8,0.00,,,0.00,1069.000000,,2013-06-09 21:30:00,
2013-06-09 15:53:00,91.0,22.0,-100.00,NNW,336,8.0,19.0,8,0.00,,,0.00,1069.000000,,2013-06-09 21:53:00,
2013-06-09 16:02:00,91.0,22.0,-100.00,NNW,336,8.0,19.0,8,0.00,,,0.00,1069.000000,,2013-06-09 22:02:00,
2013-06-09 16:13:00,91.0,22.0,-100.00,NNW,336,8.0,19.0,8,0.00,,,0.00,1069.000000,,2013-06-09 22:13:00,
2013-06-09 16:22:00,91.0,22.0,-100.00,NNW,336,8.0,19.0,8,0.00,,,0.00,1069.000000,,2013-06-09 22:22:00,
2013-06-09 16:30:00,89.0,20.0,-100.00,NNW,343,8.0,16.0,8,0.00,,,0.00,922.000000,,2013-06-09 22:30:00,
2013-06-09 16:52:00,89.0,20.0,-100.00,NNW,343,8.0,16.0,8,0.00,,,0.00,922.000000,,2013-06-09 22:52:00,
2013-06-09 17:02:00,89.0,20.0,-100.00,NNW,343,8.0,16.0,8,0.00,,,0.00,922.000000,,2013-06-09 23:02:00,
2013-06-09 17:12:00,89.0,20.0,-100.00,NNW,343,8.0,16.0,8,0.00,,,0.00,922.000000,,2013-06-09 23:12:00,
2013-06-09 17:22:00,89.0,20.0,-100.00,NNW,343,8.0,16.0,8,0.00,,,0.00,922.000000,,2013-06-09 23:22:00,
2013-06-09 17:30:00,89.0,23.0,-100.00,NW,305,5.0,19.0,9,0.00,,,0.00,724.000000,,2013-06-09 23:30:00,
2013-06-09 17:52:00,89.0,23.0,-100.00,NW,305,5.0,19.0,9,0.00,,,0.00,724.000000,,2013-06-09 23:52:00,
2013-06-09 18:02:00,89.0,23.0,-100.00,NW,305,5.0,19.0,9,0.00,,,0.00,724.000000,,2013-06-10 00:02:00,
2013-06-09 18:12:00,89.0,23.0,-100.00,NW,305,5.0,19.0,9,0.00,,,0.00,724.000000,,2013-06-10 00:12:00,
2013-06-09 18:22:00,89.0,23.0,-100.00,NW,305,5.0,19.0,9,0.00,,,0.00,724.000000,,2013-06-10 00:22:00,
2013-06-09 18:30:00,88.0,27.0,-100.00,WNW,288,7.0,16.0,11,0.00,,,-99.99,487.000000,,2013-06-10 00:30:00,
2013-06-09 18:52:00,88.0,27.0,-100.00,WNW,288,7.0,16.0,11,0.00,,,-99.99,487.000000,,2013-06-10 00:52:00,
2013-06-09 19:02:00,88.0,27.0,-100.00,WNW,288,7.0,16.0,11,0.00,,,-99.99,487.000000,,2013-06-10 01:02:00,
2013-06-09 19:12:00,88.0,27.0,-100.00,WNW,288,7.0,16.0,11,0.00,,,-99.99,487.000000,,2013-06-10 01:12:00,
2013-06-09 19:22:00,88.0,27.0,-100.00,WNW,288,7.0,16.0,11,0.00,,,-99.99,487.000000,,2013-06-10 01:22:00,
2013-06-09 19:30:00,84.0,26.0,-100.00,WNW,284,4.0,10.0,12,0.00,,,0.00,80.000000,,2013-06-10 01:30:00,
2013-06-09 19:52:00,84.0,26.0,-100.00,WNW,284,4.0,10.0,12,0.00,,,0.00,80.000000,,2013-06-10 01:52:00,
2013-06-09 20:02:00,84.0,26.0,-100.00,WNW,284,4.0,10.0,12,0.00,,,0.00,80.000000,,2013-06-10 02:02:00,
2013-06-09 20:12:00,84.0,26.0,-100.00,WNW,284,4.0,10.0,12,0.00,,,0.00,80.000000,,2013-06-10 02:12:00,
2013-06-09 20:22:00,84.0,26.0,-100.00,WNW,284,4.0,10.0,12,0.00,,,0.00,80.000000,,2013-06-10 02:22:00,
2013-06-09 20:30:00,79.0,24.0,-100.00,West,280,4.0,10.0,13,0.00,,,0.00,18.000000,,2013-06-10 02:30:00,
2013-06-09 20:52:00,79.0,24.0,-100.00,West,280,4.0,10.0,13,0.00,,,0.00,18.000000,,2013-06-10 02:52:00,
2013-06-09 21:02:00,79.0,24.0,-100.00,West,280,4.0,10.0,13,0.00,,,0.00,18.000000,,2013-06-10 03:02:00,
2013-06-09 21:12:00,79.0,24.0,-100.00,West,280,4.0,10.0,13,0.00,,,0.00,18.000000,,2013-06-10 03:12:00,
2013-06-09 21:22:00,79.0,24.0,-100.00,West,280,4.0,10.0,13,0.00,,,0.00,18.000000,,2013-06-10 03:22:00,
2013-06-09 21:30:00,75.0,23.0,-100.00,NW,315,4.0,11.0,14,0.00,,,0.00,1.000000,,2013-06-10 03:30:00,
2013-06-09 21:53:00,75.0,23.0,-100.00,NW,315,4.0,11.0,14,0.00,,,0.00,1.000000,,2013-06-10 03:53:00,
2013-06-09 22:03:00,75.0,23.0,-100.00,NW,315,4.0,11.0,14,0.00,,,0.00,1.000000,,2013-06-10 04:03:00,
2013-06-09 22:12:00,75.0,23.0,-100.00,NW,315,4.0,11.0,14,0.00,,,0.00,1.000000,,2013-06-10 04:12:00,
2013-06-09 22:23:00,75.0,23.0,-100.00,NW,315,4.0,11.0,14,0.00,,,0.00,1.000000,,2013-06-10 04:23:00,
2013-06-09 22:30:00,74.0,20.0,-100.00,NW,319,5.0,6.0,13,0.00,,,0.00,0.000000,,2013-06-10 04:30:00,
2013-06-09 22:52:00,74.0,20.0,-100.00,NW,319,5.0,6.0,13,0.00,,,0.00,0.000000,,2013-06-10 04:52:00,
2013-06-09 23:02:00,74.0,20.0,-100.00,NW,319,5.0,6.0,13,0.00,,,0.00,0.000000,,2013-06-10 05:02:00,
2013-06-09 23:12:00,74.0,20.0,-100.00,NW,319,5.0,6.0,13,0.00,,,0.00,0.000000,,2013-06-10 05:12:00,
2013-06-09 23:22:00,74.0,20.0,-100.00,NW,319,5.0,6.0,13,0.00,,,0.00,0.000000,,2013-06-10 05:22:00,
2013-06-09 23:30:00,72.0,20.0,-100.00,NNW,335,2.0,8.0,14,0.00,,,0.00,0.000000,,2013-06-10 05:30:00,
2013-06-09 23:52:00,72.0,20.0,-100.00,NNW,335,2.0,8.0,14,0.00,,,0.00,0.000000,,2013-06-10 05:52:00,